createdAt,value
2024-03-02T00:00:52.773Z,0.60
2024-03-02T00:03:20.498Z,0.70
2024-03-02T00:05:53.080Z,0.80
2024-03-02T00:08:26.270Z,0.65
2024-03-02T00:10:59.944Z,0.65
2024-03-02T00:13:27.454Z,0.73
2024-03-02T00:15:56.431Z,0.65
2024-03-02T00:18:32.603Z,0.93
2024-03-02T00:21:00.981Z,0.40
2024-03-02T00:23:32.605Z,1.20
2024-03-02T00:26:01.119Z,0.70
2024-03-02T00:28:36.302Z,0.57
2024-03-02T00:31:06.383Z,0.70
2024-03-02T00:33:36.042Z,0.70
2024-03-02T00:36:05.724Z,1.33
2024-03-02T00:38:32.720Z,0.93
2024-03-02T00:41:09.824Z,0.77
2024-03-02T00:43:36.439Z,0.80
2024-03-02T00:46:03.068Z,0.55
2024-03-02T00:48:32.686Z,0.45
2024-03-02T00:50:59.384Z,0.60
2024-03-02T00:53:27.475Z,0.60
2024-03-02T00:55:54.390Z,0.70
2024-03-02T00:58:21.033Z,0.47
2024-03-02T01:00:47.715Z,0.30
2024-03-02T01:03:14.365Z,0.25
2024-03-02T01:05:44.619Z,0.10
2024-03-02T01:08:11.980Z,0.10
2024-03-02T01:10:38.570Z,0.10
2024-03-02T01:13:05.169Z,0.10
2024-03-02T01:15:31.880Z,0.10
2024-03-02T01:17:58.665Z,0.20
2024-03-02T01:20:25.992Z,0.10
2024-03-02T01:22:53.332Z,0.10
2024-03-02T01:25:19.917Z,0.10
2024-03-02T01:27:50.241Z,0.10
2024-03-02T01:30:17.536Z,0.10
2024-03-02T01:32:44.406Z,0.13
2024-03-02T01:35:11.074Z,0.10
2024-03-02T01:37:37.660Z,0.10
2024-03-02T01:40:10.190Z,0.03
2024-03-02T01:42:38.342Z,0.00
2024-03-02T01:45:08.636Z,0.20
2024-03-02T01:47:36.196Z,0.10
2024-03-02T01:50:03.127Z,0.00
2024-03-02T01:52:30.605Z,0.13
2024-03-02T01:54:57.632Z,0.13
2024-03-02T01:57:24.460Z,0.10
2024-03-02T01:59:53.157Z,0.08
2024-03-02T02:02:21.205Z,0.08
2024-03-02T02:04:47.943Z,0.10
2024-03-02T02:07:15.721Z,0.17
2024-03-02T02:09:43.325Z,0.10
2024-03-02T02:12:11.296Z,0.30
2024-03-02T02:14:38.298Z,0.17
2024-03-02T02:17:05.027Z,0.30
2024-03-02T02:19:31.550Z,0.20
2024-03-02T02:21:58.146Z,0.10
2024-03-02T02:24:24.864Z,0.20
2024-03-02T02:26:51.419Z,0.25
2024-03-02T02:29:18.400Z,0.10
2024-03-02T02:31:45.114Z,0.10
2024-03-02T02:34:11.737Z,0.20
2024-03-02T02:36:41.069Z,0.17
2024-03-02T02:39:11.969Z,0.10
2024-03-02T02:41:39.710Z,0.10
2024-03-02T02:44:06.455Z,0.38
2024-03-02T02:46:33.044Z,0.10
2024-03-02T02:48:59.735Z,0.20
2024-03-02T02:51:29.005Z,0.20
2024-03-02T02:53:55.588Z,0.20
2024-03-02T02:56:22.192Z,0.13
2024-03-02T02:58:48.948Z,0.20
2024-03-02T03:01:19.212Z,0.40
2024-03-02T03:03:46.738Z,0.08
2024-03-02T03:06:13.594Z,0.13
2024-03-02T03:08:40.291Z,0.10
2024-03-02T03:11:07.138Z,0.20
2024-03-02T03:13:34.991Z,0.20
2024-03-02T03:16:01.720Z,0.10
2024-03-02T03:18:28.425Z,0.20
2024-03-02T03:20:55.085Z,0.10
2024-03-02T03:23:22.008Z,0.13
2024-03-02T03:25:48.656Z,0.10
2024-03-02T03:28:15.226Z,0.38
2024-03-02T03:30:42.219Z,0.13
2024-03-02T03:33:08.820Z,0.20
2024-03-02T03:35:36.040Z,0.20
2024-03-02T03:38:02.660Z,0.20
2024-03-02T03:40:29.247Z,0.20
2024-03-02T03:42:57.345Z,0.10
2024-03-02T03:45:24.010Z,0.20
2024-03-02T03:47:50.616Z,0.10
2024-03-02T03:50:17.562Z,0.25
2024-03-02T03:52:44.871Z,0.10
2024-03-02T03:55:11.522Z,0.17
2024-03-02T03:57:38.131Z,0.32
2024-03-02T04:00:05.549Z,0.05
2024-03-02T04:02:32.151Z,0.13
2024-03-02T04:04:58.772Z,0.30
2024-03-02T04:07:25.320Z,0.10
2024-03-02T04:09:51.910Z,0.20
2024-03-02T04:12:18.570Z,0.10
2024-03-02T04:14:45.224Z,0.10
2024-03-02T04:17:11.810Z,0.20
2024-03-02T04:19:38.395Z,0.30
2024-03-02T04:22:12.465Z,0.30
2024-03-02T04:24:45.280Z,0.20
2024-03-02T04:27:11.858Z,0.05
2024-03-02T04:29:38.424Z,0.50
2024-03-02T04:32:05.792Z,0.10
2024-03-02T04:34:32.359Z,0.15
2024-03-02T04:36:58.941Z,0.20
2024-03-02T04:39:26.121Z,0.60
2024-03-02T04:41:52.694Z,0.20
2024-03-02T04:44:19.254Z,0.20
2024-03-02T04:46:45.800Z,0.43
2024-03-02T04:49:12.482Z,0.20
2024-03-02T04:51:39.188Z,0.10
2024-03-02T04:54:05.911Z,0.22
2024-03-02T04:56:32.466Z,0.10
2024-03-02T04:58:58.997Z,0.10
2024-03-02T05:01:25.612Z,0.10
2024-03-02T05:03:52.319Z,0.17
2024-03-02T05:06:19.034Z,0.10
2024-03-02T05:08:46.152Z,0.20
2024-03-02T05:11:33.469Z,0.10
2024-03-02T05:14:00.050Z,0.20
2024-03-02T05:16:26.599Z,0.20
2024-03-02T05:18:53.261Z,0.10
2024-03-02T05:21:19.901Z,0.30
2024-03-02T05:23:46.774Z,0.28
2024-03-02T05:26:13.975Z,0.22
2024-03-02T05:28:40.657Z,0.20
2024-03-02T05:31:07.873Z,0.20
2024-03-02T05:33:34.601Z,0.30
2024-03-02T05:36:03.003Z,0.20
2024-03-02T05:38:29.612Z,0.43
2024-03-02T05:40:56.167Z,0.25
2024-03-02T05:43:22.759Z,0.22
2024-03-02T05:45:49.390Z,0.20
2024-03-02T05:48:18.349Z,0.20
2024-03-02T05:50:45.054Z,0.10
2024-03-02T05:53:14.573Z,0.20
2024-03-02T05:55:41.137Z,0.10
2024-03-02T05:58:07.663Z,0.20
2024-03-02T06:00:34.806Z,0.20
2024-03-02T06:03:01.563Z,0.20
2024-03-02T06:05:28.180Z,0.13
2024-03-02T06:07:54.840Z,1.00
2024-03-02T06:10:22.012Z,0.52
2024-03-02T06:12:48.694Z,0.10
2024-03-02T06:15:15.336Z,0.30
2024-03-02T06:17:42.011Z,0.15
2024-03-02T06:20:09.718Z,0.20
2024-03-02T06:22:36.558Z,0.57
2024-03-02T06:25:03.285Z,0.30
2024-03-02T06:27:29.876Z,0.63
2024-03-02T06:29:56.536Z,0.20
2024-03-02T06:32:24.200Z,0.15
2024-03-02T06:34:50.727Z,0.20
2024-03-02T06:37:17.476Z,0.20
2024-03-02T06:39:44.871Z,0.95
2024-03-02T06:42:11.434Z,0.22
2024-03-02T06:44:38.024Z,1.05
2024-03-02T06:47:05.386Z,0.20
2024-03-02T06:49:32.008Z,0.10
2024-03-02T06:51:58.570Z,0.40
2024-03-02T06:54:25.209Z,0.40
2024-03-02T06:56:54.485Z,0.28
2024-03-02T06:59:21.104Z,0.30
2024-03-02T07:01:47.681Z,0.30
2024-03-02T07:04:14.282Z,0.22
2024-03-02T07:06:40.982Z,0.28
2024-03-02T07:09:11.951Z,0.30
2024-03-02T07:11:38.545Z,0.20
2024-03-02T07:14:05.074Z,0.20
2024-03-02T07:16:34.227Z,0.10
2024-03-02T07:19:02.460Z,0.68
2024-03-02T07:21:29.250Z,0.28
2024-03-02T07:23:55.910Z,0.08
2024-03-02T07:28:53.020Z,0.10
2024-03-02T07:31:19.590Z,0.40
2024-03-02T07:33:47.564Z,0.20
2024-03-02T07:36:14.363Z,0.20
2024-03-02T07:38:41.698Z,0.30
2024-03-02T07:41:09.721Z,0.30
2024-03-02T07:43:36.333Z,0.20
2024-03-02T07:46:04.359Z,0.13
2024-03-02T07:48:32.122Z,0.22
2024-03-02T07:50:58.861Z,0.38
2024-03-02T07:53:25.437Z,0.40
2024-03-02T07:55:52.035Z,0.30
2024-03-02T07:58:20.635Z,0.20
2024-03-02T08:00:47.873Z,0.40
2024-03-02T08:03:16.161Z,0.35
2024-03-02T08:05:42.866Z,0.20
2024-03-02T08:08:09.556Z,0.30
2024-03-02T08:10:36.154Z,0.10
2024-03-02T08:13:03.026Z,0.50
2024-03-02T08:15:29.757Z,0.17
2024-03-02T08:17:57.600Z,0.30
2024-03-02T08:20:24.323Z,1.17
2024-03-02T08:22:51.051Z,0.52
2024-03-02T08:25:17.998Z,0.28
2024-03-02T08:27:44.626Z,0.60
2024-03-02T08:30:11.967Z,0.20
2024-03-02T08:32:38.617Z,0.20
2024-03-02T08:35:06.140Z,0.30
2024-03-02T08:37:32.828Z,0.17
2024-03-02T08:39:59.978Z,0.15
2024-03-02T08:42:26.841Z,0.30
2024-03-02T08:44:53.451Z,0.20
2024-03-02T08:47:20.102Z,0.32
2024-03-02T08:49:46.693Z,0.93
2024-03-02T08:52:14.103Z,0.30
2024-03-02T08:54:40.776Z,0.40
2024-03-02T08:57:08.434Z,0.40
2024-03-02T08:59:35.204Z,0.40
2024-03-02T09:02:01.910Z,0.40
2024-03-02T09:04:31.672Z,0.35
2024-03-02T09:07:00.565Z,0.38
2024-03-02T09:09:27.203Z,0.28
2024-03-02T09:11:56.195Z,0.60
2024-03-02T09:14:23.093Z,0.25
2024-03-02T09:16:52.182Z,0.20
2024-03-02T09:19:19.901Z,0.30
2024-03-02T09:21:46.524Z,0.63
2024-03-02T09:24:16.637Z,0.30
2024-03-02T09:26:45.057Z,0.20
2024-03-02T09:29:11.688Z,0.30
2024-03-02T09:31:44.650Z,0.60
2024-03-02T09:34:11.269Z,0.60
2024-03-02T09:36:37.879Z,0.45
2024-03-02T09:39:05.450Z,0.20
2024-03-02T09:41:34.063Z,0.20
2024-03-02T09:44:01.054Z,0.38
2024-03-02T09:46:27.643Z,0.55
2024-03-02T09:48:54.565Z,0.50
2024-03-02T09:51:21.439Z,0.20
2024-03-02T09:53:48.724Z,0.45
2024-03-02T09:56:16.950Z,0.73
2024-03-02T09:58:45.094Z,0.90
2024-03-02T10:01:11.958Z,0.50
2024-03-02T10:03:41.161Z,0.28
2024-03-02T10:06:25.638Z,2.20
2024-03-02T10:08:52.680Z,0.38
2024-03-02T10:11:35.148Z,0.45
2024-03-02T10:14:12.232Z,0.60
2024-03-02T10:16:44.565Z,0.52
2024-03-02T10:19:25.191Z,0.50
2024-03-02T10:21:53.720Z,0.50
2024-03-02T10:24:22.009Z,0.52
2024-03-02T10:26:49.473Z,1.50
2024-03-02T10:29:16.473Z,1.17
2024-03-02T10:31:44.874Z,0.93
2024-03-02T10:34:12.510Z,0.38
2024-03-02T10:36:42.657Z,0.50
2024-03-02T10:39:09.912Z,0.30
2024-03-02T10:41:38.289Z,0.47
2024-03-02T10:44:09.204Z,0.88
2024-03-02T10:46:37.938Z,0.60
2024-03-02T10:49:08.580Z,0.47
2024-03-02T10:51:37.812Z,0.45
2024-03-02T10:54:05.590Z,0.45
2024-03-02T10:56:33.039Z,0.40
2024-03-02T10:59:25.745Z,0.40
2024-03-02T11:02:05.026Z,0.50
2024-03-02T11:04:33.062Z,0.50
2024-03-02T11:07:07.501Z,0.60
2024-03-02T11:09:36.261Z,0.40
2024-03-02T11:12:30.544Z,0.77
2024-03-02T11:14:57.839Z,0.30
2024-03-02T11:17:26.298Z,0.30
2024-03-02T11:19:53.926Z,1.73
2024-03-02T11:22:21.714Z,0.70
2024-03-02T11:24:53.389Z,0.20
2024-03-02T11:27:49.311Z,0.22
2024-03-02T11:33:09.559Z,0.50
2024-03-02T11:38:16.196Z,0.30
2024-03-02T11:40:43.008Z,0.60
2024-03-02T11:43:10.570Z,0.70
2024-03-02T11:45:42.466Z,0.50
2024-03-02T11:48:13.701Z,1.05
2024-03-02T11:50:43.432Z,0.40
2024-03-02T11:53:11.759Z,0.40
2024-03-02T11:55:39.191Z,0.38
2024-03-02T11:58:06.209Z,0.63
2024-03-02T12:00:33.266Z,0.45
2024-03-02T12:03:10.475Z,0.30
2024-03-02T12:05:37.611Z,0.70
2024-03-02T12:08:06.147Z,0.40
2024-03-02T12:10:35.753Z,0.70
2024-03-02T12:13:12.281Z,0.43
2024-03-02T12:15:41.028Z,0.70
2024-03-02T12:18:07.900Z,0.40
2024-03-02T12:20:35.477Z,0.40
2024-03-02T12:23:04.087Z,0.47
2024-03-02T12:25:32.903Z,0.65
2024-03-02T12:28:02.183Z,0.20
2024-03-02T12:30:31.781Z,0.30
2024-03-02T12:32:58.441Z,1.85
2024-03-02T12:35:26.485Z,0.43
2024-03-02T12:37:54.389Z,1.17
2024-03-02T12:40:23.442Z,0.40
2024-03-02T12:42:50.749Z,0.38
2024-03-02T12:45:25.094Z,0.65
2024-03-02T12:47:53.066Z,0.30
2024-03-02T12:50:20.769Z,0.45
2024-03-02T12:52:55.066Z,0.30
2024-03-02T12:55:26.021Z,0.35
2024-03-02T12:57:54.234Z,0.25
2024-03-02T13:00:22.311Z,0.30
2024-03-02T13:02:52.760Z,0.40
2024-03-02T13:05:20.881Z,0.38
2024-03-02T13:07:51.397Z,0.38
2024-03-02T13:10:19.291Z,0.20
2024-03-02T13:12:46.353Z,0.68
2024-03-02T13:15:16.453Z,0.30
2024-03-02T13:17:46.979Z,1.55
2024-03-02T13:20:15.361Z,0.60
2024-03-02T13:22:42.321Z,0.40
2024-03-02T13:25:11.722Z,0.52
2024-03-02T13:27:38.603Z,0.32
2024-03-02T13:30:07.084Z,1.00
2024-03-02T13:32:33.964Z,0.22
2024-03-02T13:35:01.438Z,0.40
2024-03-02T13:37:28.192Z,0.45
2024-03-02T13:39:54.904Z,0.60
2024-03-02T13:42:21.566Z,0.40
2024-03-02T13:44:49.547Z,0.55
2024-03-02T13:47:16.571Z,0.50
2024-03-02T13:49:48.211Z,0.77
2024-03-02T13:52:16.237Z,0.40
2024-03-02T13:54:47.086Z,0.70
2024-03-02T13:57:13.865Z,0.77
2024-03-02T13:59:43.915Z,0.40
2024-03-02T14:02:12.324Z,0.40
2024-03-02T14:04:40.158Z,0.68
2024-03-02T14:07:10.102Z,0.93
2024-03-02T14:09:37.604Z,0.50
2024-03-02T14:12:05.813Z,0.60
2024-03-02T14:14:32.720Z,0.20
2024-03-02T14:17:05.511Z,0.47
2024-03-02T14:19:32.840Z,0.60
2024-03-02T14:22:00.903Z,0.47
2024-03-02T14:24:29.362Z,0.50
2024-03-02T14:27:05.460Z,0.50
2024-03-02T14:29:38.882Z,0.60
2024-03-02T14:32:06.124Z,0.40
2024-03-02T14:34:32.870Z,0.90
2024-03-02T14:37:00.018Z,0.82
2024-03-02T14:39:27.835Z,0.55
2024-03-02T14:41:56.075Z,0.40
2024-03-02T14:44:22.716Z,0.40
2024-03-02T14:46:49.491Z,1.10
2024-03-02T14:49:16.485Z,0.70
2024-03-02T14:51:43.119Z,0.50
2024-03-02T14:54:10.227Z,0.52
2024-03-02T14:56:36.794Z,0.43
2024-03-02T14:59:03.378Z,0.40
2024-03-02T15:01:30.112Z,0.40
2024-03-02T15:03:56.795Z,0.40
2024-03-02T15:06:23.729Z,0.40
2024-03-02T15:08:50.948Z,0.30
2024-03-02T15:11:17.586Z,0.47
2024-03-02T15:13:44.235Z,0.60
2024-03-02T15:16:10.957Z,0.40
2024-03-02T15:18:38.024Z,0.47
2024-03-02T15:21:05.123Z,0.75
2024-03-02T15:23:31.645Z,1.15
2024-03-02T15:25:58.365Z,0.45
2024-03-02T15:28:24.932Z,1.52
2024-03-02T15:30:53.450Z,0.38
2024-03-02T15:33:21.858Z,0.80
2024-03-02T15:35:48.510Z,0.65
2024-03-02T15:38:24.688Z,0.80
2024-03-02T15:40:58.944Z,0.40
2024-03-02T15:43:25.536Z,0.45
2024-03-02T15:45:52.230Z,0.52
2024-03-02T15:48:18.858Z,0.32
2024-03-02T15:50:45.489Z,0.60
2024-03-02T15:53:12.096Z,0.73
2024-03-02T15:55:38.658Z,0.57
2024-03-02T15:58:07.058Z,1.25
2024-03-02T16:00:33.775Z,0.73
2024-03-02T16:03:00.526Z,0.93
2024-03-02T16:05:27.066Z,0.45
2024-03-02T16:07:53.709Z,0.45
2024-03-02T16:10:20.309Z,0.43
2024-03-02T16:12:48.044Z,0.20
2024-03-02T16:15:15.447Z,0.77
2024-03-02T16:17:42.071Z,0.70
2024-03-02T16:20:09.157Z,0.43
2024-03-02T16:22:35.875Z,0.60
2024-03-02T16:25:02.694Z,0.70
2024-03-02T16:27:29.564Z,0.63
2024-03-02T16:29:57.489Z,0.38
2024-03-02T16:32:24.069Z,0.70
2024-03-02T16:34:50.724Z,0.47
2024-03-02T16:37:17.348Z,0.47
2024-03-02T16:39:44.473Z,0.45
2024-03-02T16:42:11.036Z,0.50
2024-03-02T16:44:37.596Z,0.40
2024-03-02T16:47:05.414Z,0.55
2024-03-02T16:49:31.931Z,0.40
2024-03-02T16:51:58.491Z,0.45
2024-03-02T16:54:25.176Z,0.50
2024-03-02T16:56:51.759Z,0.50
2024-03-02T16:59:18.391Z,0.30
2024-03-02T17:01:44.983Z,0.60
2024-03-02T17:04:11.773Z,0.50
2024-03-02T17:06:38.432Z,0.55
2024-03-02T17:09:05.042Z,0.90
2024-03-02T17:11:32.152Z,9.60
2024-03-02T17:13:59.272Z,0.70
2024-03-02T17:16:26.189Z,0.50
2024-03-02T17:18:53.708Z,0.60
2024-03-02T17:21:21.068Z,0.70
2024-03-02T17:23:48.256Z,4.55
2024-03-02T17:26:15.171Z,1.90
2024-03-02T17:28:42.436Z,0.60
2024-03-02T17:31:09.270Z,1.30
2024-03-02T17:33:36.130Z,0.98
2024-03-02T17:36:03.471Z,0.73
2024-03-02T17:38:30.091Z,0.95
2024-03-02T17:40:58.054Z,0.63
2024-03-02T17:43:24.763Z,4.30
2024-03-02T17:45:51.572Z,1.05
2024-03-02T17:48:18.311Z,5.13
2024-03-02T17:50:44.950Z,2.13
2024-03-02T17:53:11.567Z,0.90
2024-03-02T17:55:38.415Z,1.65
2024-03-02T17:58:05.208Z,4.95
2024-03-02T18:00:32.323Z,10.00
2024-03-02T18:02:59.012Z,1.10
2024-03-02T18:05:25.608Z,1.10
2024-03-02T18:07:52.219Z,0.70
2024-03-02T18:10:18.963Z,0.77
2024-03-02T18:12:46.838Z,1.73
2024-03-02T18:15:13.434Z,5.85
2024-03-02T18:17:40.035Z,7.10
2024-03-02T18:20:07.399Z,1.52
2024-03-02T18:22:35.814Z,1.10
2024-03-02T18:25:03.015Z,1.77
2024-03-02T18:27:29.870Z,0.77
2024-03-02T18:29:56.949Z,2.58
2024-03-02T18:32:23.917Z,0.85
2024-03-02T18:34:50.582Z,1.52
2024-03-02T18:37:18.145Z,1.40
2024-03-02T18:39:48.577Z,1.38
2024-03-02T18:42:16.423Z,3.97
2024-03-02T18:44:43.627Z,1.50
2024-03-02T18:47:12.166Z,3.05
2024-03-02T18:49:45.916Z,5.13
2024-03-02T18:52:15.479Z,11.13
2024-03-02T18:54:42.665Z,12.60
2024-03-02T18:57:10.775Z,16.15
2024-03-02T18:59:37.595Z,18.70
2024-03-02T19:02:04.786Z,17.23
2024-03-02T19:04:31.647Z,16.83
2024-03-02T19:06:58.498Z,14.50
2024-03-02T19:09:25.178Z,14.82
2024-03-02T19:11:51.746Z,12.18
2024-03-02T19:14:18.267Z,6.88
2024-03-02T19:16:45.356Z,20.75
2024-03-02T19:19:12.057Z,4.85
2024-03-02T19:21:38.750Z,5.63
2024-03-02T19:24:05.471Z,5.32
2024-03-02T19:26:32.026Z,4.03
2024-03-02T19:28:58.601Z,4.25
2024-03-02T19:31:25.240Z,4.00
2024-03-02T19:33:52.732Z,3.50
2024-03-02T19:36:20.180Z,2.78
2024-03-02T19:38:46.839Z,3.03
2024-03-02T19:41:13.407Z,3.00
2024-03-02T19:43:39.940Z,3.20
2024-03-02T19:46:06.521Z,2.42
2024-03-02T19:48:33.174Z,1.73
2024-03-02T19:50:59.787Z,1.85
2024-03-02T19:53:26.776Z,1.38
2024-03-02T19:55:53.432Z,0.80
2024-03-02T19:58:20.367Z,0.77
2024-03-02T20:00:47.146Z,1.42
2024-03-02T20:03:15.171Z,0.60
2024-03-02T20:05:41.797Z,0.80
2024-03-02T20:08:11.277Z,0.73
2024-03-02T20:10:38.452Z,0.88
2024-03-02T20:13:07.151Z,0.90
2024-03-02T20:15:34.140Z,0.80
2024-03-02T20:18:01.430Z,1.00
2024-03-02T20:20:28.205Z,0.70
2024-03-02T20:22:54.800Z,0.75
2024-03-02T20:25:21.489Z,0.70
2024-03-02T20:27:48.190Z,1.25
2024-03-02T20:30:14.914Z,0.80
2024-03-02T20:32:41.635Z,0.70
2024-03-02T20:35:08.675Z,0.73
2024-03-02T20:37:35.300Z,0.60
2024-03-02T20:40:02.115Z,1.10
2024-03-02T20:42:28.898Z,0.60
2024-03-02T20:44:55.508Z,0.70
2024-03-02T20:47:23.851Z,0.68
2024-03-02T20:49:52.161Z,0.85
2024-03-02T20:52:19.347Z,1.25
2024-03-02T20:54:46.653Z,0.80
2024-03-02T20:57:13.834Z,0.68
2024-03-02T20:59:40.703Z,0.68
2024-03-02T21:02:07.689Z,0.88
2024-03-02T21:04:34.448Z,1.10
2024-03-02T21:07:01.130Z,0.70
2024-03-02T21:09:27.807Z,1.10
2024-03-02T21:11:54.512Z,0.73
2024-03-02T21:14:21.075Z,1.10
2024-03-02T21:16:50.628Z,0.90
2024-03-02T21:19:17.894Z,1.20
2024-03-02T21:21:44.698Z,1.10
2024-03-02T21:24:11.337Z,0.80
2024-03-02T21:26:39.282Z,0.77
2024-03-02T21:29:05.924Z,1.10
2024-03-02T21:31:32.518Z,2.20
2024-03-02T21:33:59.167Z,1.05
2024-03-02T21:36:25.749Z,1.30
2024-03-02T21:38:52.446Z,1.40
2024-03-02T21:41:19.102Z,0.93
2024-03-02T21:43:45.805Z,1.00
2024-03-02T21:46:13.623Z,1.15
2024-03-02T21:48:40.312Z,0.90
2024-03-02T21:51:07.005Z,1.45
2024-03-02T21:53:34.425Z,1.35
2024-03-02T21:56:01.055Z,0.75
2024-03-02T21:58:27.625Z,1.13
2024-03-02T22:00:54.228Z,1.10
2024-03-02T22:03:20.848Z,1.00
2024-03-02T22:05:47.397Z,0.95
2024-03-02T22:08:13.938Z,1.40
2024-03-02T22:10:40.492Z,0.70
2024-03-02T22:13:07.132Z,0.80
2024-03-02T22:15:33.925Z,0.90
2024-03-02T22:18:04.141Z,0.90
2024-03-02T22:20:30.859Z,1.00
2024-03-02T22:22:58.575Z,0.93
2024-03-02T22:25:28.242Z,1.42
2024-03-02T22:27:57.710Z,0.90
2024-03-02T22:30:24.495Z,1.10
2024-03-02T22:32:52.097Z,1.10
2024-03-02T22:35:21.212Z,0.73
2024-03-02T22:37:49.033Z,0.88
2024-03-02T22:40:15.801Z,1.10
2024-03-02T22:42:42.408Z,0.70
2024-03-02T22:45:09.418Z,0.85
2024-03-02T22:47:36.080Z,0.80
2024-03-02T22:50:02.921Z,0.90
2024-03-02T22:52:29.525Z,0.90
2024-03-02T22:54:57.232Z,1.33
2024-03-02T22:57:23.796Z,0.85
2024-03-02T22:59:51.275Z,0.98
2024-03-02T23:02:18.796Z,0.98
2024-03-02T23:04:45.628Z,0.80
2024-03-02T23:07:12.262Z,0.80
2024-03-02T23:09:38.989Z,0.90
2024-03-02T23:12:05.834Z,0.82
2024-03-02T23:14:32.420Z,0.60
2024-03-02T23:16:58.961Z,0.70
2024-03-02T23:19:25.506Z,0.70
2024-03-02T23:21:52.443Z,0.80
2024-03-02T23:24:19.259Z,0.70
2024-03-02T23:26:45.827Z,0.93
2024-03-02T23:29:12.482Z,0.90
2024-03-02T23:31:39.063Z,0.98
2024-03-02T23:34:06.452Z,1.20
2024-03-02T23:36:34.038Z,1.00
2024-03-02T23:39:05.577Z,1.00
2024-03-02T23:41:32.627Z,0.90
2024-03-02T23:44:02.270Z,0.70
2024-03-02T23:46:30.015Z,1.10
2024-03-02T23:48:57.005Z,1.15
2024-03-02T23:51:23.965Z,1.05
2024-03-02T23:53:50.694Z,1.17
2024-03-02T23:56:17.536Z,1.30
2024-03-02T23:58:45.922Z,1.10
